createdAt,value
2018-12-16T00:00:58.269Z,96.20
2018-12-16T00:03:27.436Z,96.20
2018-12-16T00:05:56.503Z,96.10
2018-12-16T00:08:25.638Z,96.00
2018-12-16T00:10:54.687Z,96.10
2018-12-16T00:13:23.800Z,95.90
2018-12-16T00:15:53.034Z,95.80
2018-12-16T00:18:22.081Z,95.80
2018-12-16T00:20:51.134Z,95.80
2018-12-16T00:23:20.716Z,96.00
2018-12-16T00:25:49.739Z,95.90
2018-12-16T00:28:18.858Z,95.70
2018-12-16T00:30:48.182Z,95.80
2018-12-16T00:33:17.256Z,95.70
2018-12-16T00:35:46.325Z,95.80
2018-12-16T00:38:15.525Z,95.70
2018-12-16T00:40:44.641Z,95.70
2018-12-16T00:43:13.767Z,96.00
2018-12-16T00:45:43.100Z,95.90
2018-12-16T00:48:12.188Z,96.00
2018-12-16T00:50:41.279Z,95.90
2018-12-16T00:53:10.385Z,95.90
2018-12-16T00:55:39.532Z,95.80
2018-12-16T00:58:08.679Z,96.00
2018-12-16T01:00:38.369Z,95.90
2018-12-16T01:03:07.491Z,95.70
2018-12-16T01:05:36.642Z,95.70
2018-12-16T01:08:05.789Z,95.50
2018-12-16T01:10:34.933Z,95.50
2018-12-16T01:13:04.260Z,95.60
2018-12-16T01:15:33.374Z,95.60
2018-12-16T01:18:02.410Z,95.60
2018-12-16T01:20:31.461Z,96.10
2018-12-16T01:23:00.926Z,95.90
2018-12-16T01:25:29.981Z,96.00
2018-12-16T01:27:59.045Z,95.90
2018-12-16T01:30:28.319Z,95.80
2018-12-16T01:32:57.391Z,95.90
2018-12-16T01:35:26.473Z,95.50
2018-12-16T01:37:55.935Z,95.60
2018-12-16T01:40:25.349Z,95.60
2018-12-16T01:42:54.460Z,95.50
2018-12-16T01:45:23.571Z,95.40
2018-12-16T01:47:52.627Z,95.50
2018-12-16T01:50:21.718Z,95.50
2018-12-16T01:52:51.221Z,95.60
2018-12-16T01:55:20.341Z,95.70
2018-12-16T01:57:49.443Z,95.70
2018-12-16T02:00:19.146Z,95.60
2018-12-16T02:02:48.246Z,95.50
2018-12-16T02:05:17.336Z,95.50
2018-12-16T02:07:46.482Z,95.70
2018-12-16T02:10:15.800Z,95.90
2018-12-16T02:12:44.864Z,95.80
2018-12-16T02:15:14.329Z,96.00
2018-12-16T02:17:43.446Z,95.90
2018-12-16T02:20:12.546Z,95.70
2018-12-16T02:22:41.704Z,96.10
2018-12-16T02:25:10.826Z,96.10
2018-12-16T02:27:39.923Z,96.10
2018-12-16T02:30:13.219Z,96.10
2018-12-16T02:32:42.322Z,96.10
2018-12-16T02:35:11.404Z,96.20
2018-12-16T02:37:40.555Z,96.20
2018-12-16T02:40:10.016Z,96.80
2018-12-16T02:42:39.159Z,96.40
2018-12-16T02:45:08.477Z,96.60
2018-12-16T02:47:37.629Z,96.70
2018-12-16T02:50:07.311Z,96.80
2018-12-16T02:52:36.447Z,96.80
2018-12-16T02:55:06.299Z,96.90
2018-12-16T02:57:35.383Z,96.90
2018-12-16T03:00:05.437Z,96.70
2018-12-16T03:02:34.526Z,96.80
2018-12-16T03:05:03.796Z,96.60
2018-12-16T03:07:33.337Z,96.90
2018-12-16T03:10:02.741Z,96.90
2018-12-16T03:12:31.904Z,96.90
2018-12-16T03:15:01.609Z,97.00
2018-12-16T03:17:30.788Z,97.10
2018-12-16T03:19:59.909Z,97.00
2018-12-16T03:22:29.043Z,97.10
2018-12-16T03:24:58.101Z,97.30
2018-12-16T03:27:27.160Z,97.30
2018-12-16T03:29:56.264Z,97.30
2018-12-16T03:32:25.403Z,97.10
2018-12-16T03:34:54.531Z,97.20
2018-12-16T03:37:23.774Z,97.40
2018-12-16T03:39:52.846Z,97.20
2018-12-16T03:42:21.992Z,97.50
2018-12-16T03:44:51.598Z,97.40
2018-12-16T03:47:20.690Z,97.50
2018-12-16T03:49:49.785Z,97.60
2018-12-16T03:52:19.221Z,97.40
2018-12-16T03:54:48.285Z,97.60
2018-12-16T03:57:17.405Z,97.70
2018-12-16T03:59:46.535Z,98.00
2018-12-16T04:02:15.630Z,98.20
2018-12-16T04:04:44.853Z,98.40
2018-12-16T04:07:14.033Z,98.40
2018-12-16T04:09:43.165Z,98.50
2018-12-16T04:12:12.263Z,98.60
2018-12-16T04:14:41.714Z,98.50
2018-12-16T04:17:10.812Z,98.50
2018-12-16T04:19:40.004Z,98.60
2018-12-16T04:22:09.620Z,98.70
2018-12-16T04:24:38.666Z,98.80
2018-12-16T04:27:07.811Z,99.00
2018-12-16T04:29:36.920Z,99.00
2018-12-16T04:32:05.952Z,99.10
2018-12-16T04:34:35.038Z,99.10
2018-12-16T04:37:04.160Z,99.10
2018-12-16T04:39:33.248Z,99.10
2018-12-16T04:42:02.378Z,99.10
2018-12-16T04:44:31.486Z,99.10
2018-12-16T04:47:00.586Z,99.10
2018-12-16T04:49:29.640Z,99.20
2018-12-16T04:51:58.722Z,99.40
2018-12-16T04:54:27.818Z,99.30
2018-12-16T04:56:56.949Z,99.20
2018-12-16T04:59:26.654Z,99.30
2018-12-16T05:01:55.793Z,99.40
2018-12-16T05:04:24.891Z,99.40
2018-12-16T05:06:54.061Z,99.50
2018-12-16T05:09:23.437Z,99.40
2018-12-16T05:11:52.524Z,99.10
2018-12-16T05:14:21.650Z,99.20
2018-12-16T05:16:50.746Z,99.30
2018-12-16T05:19:19.875Z,99.40
2018-12-16T05:21:48.993Z,99.40
2018-12-16T05:24:18.089Z,99.50
2018-12-16T05:26:47.160Z,99.50
2018-12-16T05:29:16.233Z,99.20
2018-12-16T05:31:45.350Z,99.20
2018-12-16T05:34:14.379Z,99.20
2018-12-16T05:36:43.537Z,99.30
2018-12-16T05:39:12.666Z,99.20
2018-12-16T05:41:41.782Z,99.20
2018-12-16T05:44:11.322Z,99.40
2018-12-16T05:46:40.421Z,99.40
2018-12-16T05:49:09.456Z,99.40
2018-12-16T05:51:38.576Z,99.50
2018-12-16T05:54:07.636Z,99.50
2018-12-16T05:56:36.727Z,99.40
2018-12-16T05:59:05.878Z,99.40
2018-12-16T06:01:35.096Z,99.20
2018-12-16T06:04:04.204Z,99.20
2018-12-16T06:06:33.344Z,99.30
2018-12-16T06:09:02.496Z,98.80
2018-12-16T06:11:31.753Z,98.80
2018-12-16T06:14:01.055Z,98.90
2018-12-16T06:16:30.283Z,99.10
2018-12-16T06:18:59.344Z,98.90
2018-12-16T06:21:28.430Z,99.10
2018-12-16T06:23:57.524Z,99.20
2018-12-16T06:26:26.720Z,99.30
2018-12-16T06:28:56.255Z,99.50
2018-12-16T06:31:25.332Z,99.60
2018-12-16T06:33:54.410Z,99.60
2018-12-16T06:36:23.474Z,99.60
2018-12-16T06:38:52.572Z,99.50
2018-12-16T06:41:21.638Z,99.40
2018-12-16T06:43:50.761Z,99.30
2018-12-16T06:46:19.830Z,99.20
2018-12-16T06:48:48.908Z,99.40
2018-12-16T06:51:18.443Z,99.40
2018-12-16T06:53:47.528Z,99.40
2018-12-16T06:56:16.610Z,99.20
2018-12-16T06:58:45.712Z,99.10
2018-12-16T07:01:16.020Z,99.10
2018-12-16T07:03:45.313Z,99.00
2018-12-16T07:06:14.656Z,98.90
2018-12-16T07:08:43.779Z,99.00
2018-12-16T07:11:12.877Z,99.10
2018-12-16T07:13:41.990Z,99.40
2018-12-16T07:16:11.050Z,98.90
2018-12-16T07:18:40.111Z,98.90
2018-12-16T07:21:09.234Z,99.20
2018-12-16T07:23:38.305Z,98.80
2018-12-16T07:26:07.400Z,98.90
2018-12-16T07:28:36.546Z,98.90
2018-12-16T07:31:05.613Z,98.90
2018-12-16T07:33:34.928Z,98.90
2018-12-16T07:36:04.251Z,98.80
2018-12-16T07:38:33.365Z,98.70
2018-12-16T07:41:02.800Z,98.80
2018-12-16T07:43:31.908Z,98.70
2018-12-16T07:46:00.985Z,98.70
2018-12-16T07:48:30.502Z,98.60
2018-12-16T07:50:59.597Z,98.50
2018-12-16T07:53:28.673Z,98.40
2018-12-16T07:55:57.744Z,98.50
2018-12-16T07:58:26.889Z,98.30
2018-12-16T08:00:56.002Z,98.40
2018-12-16T08:03:25.222Z,98.10
2018-12-16T08:05:54.749Z,98.30
2018-12-16T08:08:23.814Z,98.10
2018-12-16T08:10:52.940Z,98.00
2018-12-16T08:13:22.436Z,98.10
2018-12-16T08:15:51.553Z,98.10
2018-12-16T08:18:20.617Z,98.40
2018-12-16T08:20:49.772Z,98.40
2018-12-16T08:23:18.828Z,98.70
2018-12-16T08:25:47.938Z,98.70
2018-12-16T08:28:17.388Z,98.80
2018-12-16T08:30:46.459Z,98.70
2018-12-16T08:33:15.575Z,98.70
2018-12-16T08:35:44.718Z,98.50
2018-12-16T08:38:13.789Z,98.70
2018-12-16T08:40:42.887Z,98.60
2018-12-16T08:43:12.021Z,98.70
2018-12-16T08:45:41.095Z,98.60
2018-12-16T08:48:10.191Z,98.80
2018-12-16T08:50:39.748Z,98.80
2018-12-16T08:53:08.781Z,98.70
2018-12-16T08:55:37.887Z,98.70
2018-12-16T08:58:07.147Z,98.80
2018-12-16T09:00:36.224Z,98.80
2018-12-16T09:03:07.438Z,98.70
2018-12-16T09:05:36.683Z,98.90
2018-12-16T09:08:05.821Z,98.90
2018-12-16T09:10:34.978Z,99.00
2018-12-16T09:13:04.140Z,98.90
2018-12-16T09:15:33.256Z,98.90
2018-12-16T09:18:02.417Z,98.90
2018-12-16T09:20:31.519Z,99.00
2018-12-16T09:23:00.781Z,99.00
2018-12-16T09:25:29.917Z,99.20
2018-12-16T09:27:59.041Z,99.00
2018-12-16T09:30:28.136Z,99.00
2018-12-16T09:32:57.278Z,99.10
2018-12-16T09:35:26.380Z,98.90
2018-12-16T09:37:55.495Z,98.90
2018-12-16T09:40:24.686Z,99.00
2018-12-16T09:42:53.752Z,99.00
2018-12-16T09:45:22.813Z,99.00
2018-12-16T09:47:52.678Z,98.80
2018-12-16T09:50:21.757Z,98.90
2018-12-16T09:52:50.789Z,98.90
2018-12-16T09:55:19.939Z,99.00
2018-12-16T09:57:49.042Z,99.00
2018-12-16T10:00:18.226Z,98.90
2018-12-16T10:02:47.786Z,98.80
2018-12-16T10:05:16.908Z,98.80
2018-12-16T10:07:45.964Z,98.80
2018-12-16T10:10:15.120Z,98.70
2018-12-16T10:12:44.165Z,98.50
2018-12-16T10:15:13.270Z,98.30
2018-12-16T10:17:42.436Z,98.50
2018-12-16T10:20:12.703Z,98.60
2018-12-16T10:22:41.847Z,98.60
2018-12-16T10:25:11.033Z,98.60
2018-12-16T10:27:40.163Z,98.40
2018-12-16T10:30:10.054Z,98.30
2018-12-16T10:32:39.767Z,98.50
2018-12-16T10:35:08.894Z,98.30
2018-12-16T10:37:38.001Z,98.40
2018-12-16T10:40:08.017Z,98.30
2018-12-16T10:42:37.065Z,98.80
2018-12-16T10:45:07.919Z,98.20
2018-12-16T10:47:37.432Z,98.20
2018-12-16T10:50:07.497Z,98.20
2018-12-16T10:52:36.595Z,98.00
2018-12-16T10:55:05.952Z,97.90
2018-12-16T10:57:35.013Z,97.90
2018-12-16T11:00:04.413Z,98.20
2018-12-16T11:02:33.629Z,98.10
2018-12-16T11:05:02.907Z,98.30
2018-12-16T11:07:32.092Z,98.20
2018-12-16T11:10:01.330Z,98.10
2018-12-16T11:12:30.677Z,98.20
2018-12-16T11:14:59.848Z,97.90
2018-12-16T11:17:29.272Z,98.20
2018-12-16T11:19:58.356Z,97.90
2018-12-16T11:22:27.440Z,97.90
2018-12-16T11:24:56.625Z,97.90
2018-12-16T11:27:25.782Z,98.30
2018-12-16T11:29:54.916Z,98.30
2018-12-16T11:32:24.224Z,98.40
2018-12-16T11:34:53.352Z,98.20
2018-12-16T11:37:22.416Z,98.30
2018-12-16T11:39:51.614Z,98.20
2018-12-16T11:42:20.760Z,98.20
2018-12-16T11:44:49.860Z,98.20
2018-12-16T11:47:19.024Z,98.20
2018-12-16T11:49:48.148Z,98.10
2018-12-16T11:52:17.224Z,98.00
2018-12-16T11:54:46.793Z,98.20
2018-12-16T11:57:15.920Z,98.40
2018-12-16T11:59:44.997Z,98.50
2018-12-16T12:02:14.408Z,98.40
2018-12-16T12:04:43.515Z,98.30
2018-12-16T12:07:12.638Z,98.40
2018-12-16T12:09:42.247Z,98.40
2018-12-16T12:12:11.529Z,98.60
2018-12-16T12:14:41.533Z,98.60
2018-12-16T12:17:11.046Z,98.60
2018-12-16T12:19:42.352Z,98.60
2018-12-16T12:22:11.696Z,98.80
2018-12-16T12:24:41.050Z,98.60
2018-12-16T12:27:10.289Z,98.50
2018-12-16T12:29:39.726Z,98.80
2018-12-16T12:32:08.944Z,98.70
2018-12-16T12:34:44.791Z,98.70
2018-12-16T12:37:13.881Z,98.80
2018-12-16T12:39:42.955Z,98.70
2018-12-16T12:42:12.386Z,98.60
2018-12-16T12:44:41.472Z,98.80
2018-12-16T12:47:10.680Z,98.90
2018-12-16T12:49:44.921Z,98.90
2018-12-16T12:52:10.943Z,98.80
2018-12-16T12:54:40.069Z,98.80
2018-12-16T12:57:09.265Z,98.60
2018-12-16T12:59:38.385Z,98.60
2018-12-16T13:02:07.568Z,98.40
2018-12-16T13:04:36.696Z,98.50
2018-12-16T13:07:05.817Z,98.60
2018-12-16T13:09:34.993Z,98.70
2018-12-16T13:12:04.392Z,98.60
2018-12-16T13:14:33.571Z,98.70
2018-12-16T13:17:03.215Z,98.70
2018-12-16T13:19:32.327Z,98.70
2018-12-16T13:22:01.451Z,98.90
2018-12-16T13:24:31.109Z,98.60
2018-12-16T13:27:00.426Z,98.50
2018-12-16T13:29:29.498Z,98.60
2018-12-16T13:31:58.646Z,98.60
2018-12-16T13:34:27.763Z,98.60
2018-12-16T13:36:56.902Z,98.30
2018-12-16T13:39:26.611Z,98.50
2018-12-16T13:41:55.700Z,98.90
2018-12-16T13:44:24.870Z,98.70
2018-12-16T13:46:54.036Z,98.60
2018-12-16T13:49:23.133Z,98.70
2018-12-16T13:51:52.311Z,98.50
2018-12-16T13:54:21.492Z,98.60
2018-12-16T13:56:50.650Z,98.50
2018-12-16T13:59:19.761Z,98.60
2018-12-16T14:01:48.956Z,98.60
2018-12-16T14:04:18.084Z,98.60
2018-12-16T14:06:47.176Z,98.50
2018-12-16T14:09:16.623Z,98.50
2018-12-16T14:11:45.669Z,98.70
2018-12-16T14:14:14.809Z,98.60
2018-12-16T14:16:44.285Z,98.50
2018-12-16T14:19:13.687Z,98.60
2018-12-16T14:21:42.824Z,98.70
2018-12-16T14:24:11.963Z,98.50
2018-12-16T14:26:41.082Z,98.70
2018-12-16T14:29:10.216Z,98.70
2018-12-16T14:31:39.667Z,98.60
2018-12-16T14:34:08.751Z,98.80
2018-12-16T14:36:37.865Z,98.70
2018-12-16T14:39:08.721Z,98.80
2018-12-16T14:41:37.882Z,98.70
2018-12-16T14:44:07.128Z,98.80
2018-12-16T14:46:36.580Z,98.50
2018-12-16T14:49:05.742Z,98.70
2018-12-16T14:51:34.904Z,98.70
2018-12-16T14:54:04.247Z,98.50
2018-12-16T14:56:33.460Z,98.60
2018-12-16T14:59:02.793Z,98.60
2018-12-16T15:01:31.972Z,98.60
2018-12-16T15:04:01.532Z,98.80
2018-12-16T15:06:30.657Z,98.70
2018-12-16T15:09:00.055Z,98.70
2018-12-16T15:11:29.237Z,98.70
2018-12-16T15:13:58.398Z,98.70
2018-12-16T15:16:27.599Z,98.80
2018-12-16T15:18:56.672Z,98.80
2018-12-16T15:21:25.849Z,98.80
2018-12-16T15:23:55.418Z,98.80
2018-12-16T15:26:24.552Z,98.60
2018-12-16T15:28:53.853Z,98.70
2018-12-16T15:31:23.146Z,98.70
2018-12-16T15:33:52.345Z,98.70
2018-12-16T15:36:21.621Z,98.80
2018-12-16T15:38:50.782Z,98.90
2018-12-16T15:41:20.089Z,98.80
2018-12-16T15:43:49.186Z,99.20
2018-12-16T15:46:18.356Z,98.80
2018-12-16T15:48:47.553Z,98.70
2018-12-16T15:51:16.945Z,98.80
2018-12-16T15:53:46.298Z,99.30
2018-12-16T15:56:15.416Z,98.80
2018-12-16T15:58:44.613Z,98.70
2018-12-16T16:01:13.833Z,98.70
2018-12-16T16:03:43.307Z,98.60
2018-12-16T16:06:12.393Z,98.60
2018-12-16T16:08:41.925Z,98.50
2018-12-16T16:11:10.993Z,98.30
2018-12-16T16:13:40.152Z,98.10
2018-12-16T16:16:09.262Z,98.10
2018-12-16T16:18:38.347Z,98.10
2018-12-16T16:21:07.460Z,97.90
2018-12-16T16:23:36.725Z,97.70
2018-12-16T16:26:05.938Z,97.70
2018-12-16T16:28:35.138Z,97.90
2018-12-16T16:31:04.477Z,97.80
2018-12-16T16:33:34.108Z,97.80
2018-12-16T16:36:04.036Z,97.50
2018-12-16T16:38:33.464Z,97.60
2018-12-16T16:41:02.789Z,97.60
2018-12-16T16:43:32.639Z,97.70
2018-12-16T16:46:01.724Z,97.60
2018-12-16T16:48:30.932Z,97.90
2018-12-16T16:51:01.158Z,97.90
2018-12-16T16:53:30.321Z,98.00
2018-12-16T16:55:59.411Z,97.70
2018-12-16T16:58:28.864Z,98.00
2018-12-16T17:00:57.964Z,97.80
2018-12-16T17:03:27.161Z,97.80
2018-12-16T17:05:56.314Z,98.10
2018-12-16T17:08:25.438Z,98.10
2018-12-16T17:10:54.519Z,98.30
2018-12-16T17:13:23.877Z,98.20
2018-12-16T17:15:53.035Z,98.10
2018-12-16T17:18:22.191Z,98.00
2018-12-16T17:20:51.315Z,98.10
2018-12-16T17:23:20.513Z,98.00
2018-12-16T17:25:49.635Z,97.90
2018-12-16T17:28:18.770Z,97.80
2018-12-16T17:30:47.892Z,98.10
2018-12-16T17:33:17.019Z,97.80
2018-12-16T17:35:46.286Z,98.00
2018-12-16T17:38:15.586Z,97.80
2018-12-16T17:40:44.704Z,98.20
2018-12-16T17:43:14.085Z,97.90
2018-12-16T17:45:43.243Z,97.90
2018-12-16T17:48:12.429Z,97.90
2018-12-16T17:50:41.581Z,98.10
2018-12-16T17:53:10.712Z,98.00
2018-12-16T17:55:39.810Z,98.10
2018-12-16T17:58:09.316Z,98.10
2018-12-16T18:00:38.590Z,98.20
2018-12-16T18:03:07.659Z,98.10
2018-12-16T18:05:36.811Z,98.20
2018-12-16T18:08:05.966Z,98.30
2018-12-16T18:10:35.122Z,98.20
2018-12-16T18:13:04.340Z,98.30
2018-12-16T18:15:33.480Z,98.30
2018-12-16T18:18:02.699Z,98.20
2018-12-16T18:20:31.805Z,98.20
2018-12-16T18:23:01.299Z,98.20
2018-12-16T18:25:30.402Z,98.20
2018-12-16T18:27:59.604Z,98.10
2018-12-16T18:30:28.698Z,98.10
2018-12-16T18:32:58.050Z,97.90
2018-12-16T18:35:27.435Z,98.40
2018-12-16T18:37:56.722Z,98.40
2018-12-16T18:40:25.879Z,98.30
2018-12-16T18:42:54.956Z,98.10
2018-12-16T18:45:24.087Z,98.20
2018-12-16T18:47:53.197Z,98.20
2018-12-16T18:50:22.363Z,98.20
2018-12-16T18:52:51.509Z,98.00
2018-12-16T18:55:20.614Z,98.10
2018-12-16T18:57:49.858Z,97.90
2018-12-16T19:00:18.977Z,97.80
2018-12-16T19:02:48.027Z,97.90
2018-12-16T19:05:17.709Z,98.10
2018-12-16T19:07:46.830Z,97.90
2018-12-16T19:10:15.960Z,97.80
2018-12-16T19:12:45.080Z,98.00
2018-12-16T19:15:15.293Z,98.10
2018-12-16T19:17:44.375Z,98.20
2018-12-16T19:20:13.553Z,97.90
2018-12-16T19:22:42.665Z,98.10
2018-12-16T19:25:11.770Z,98.00
2018-12-16T19:27:40.932Z,97.80
2018-12-16T19:30:10.674Z,98.10
2018-12-16T19:32:39.814Z,97.90
2018-12-16T19:35:09.384Z,98.00
2018-12-16T19:37:38.462Z,98.20
2018-12-16T19:40:07.753Z,98.30
2018-12-16T19:42:36.899Z,98.00
2018-12-16T19:45:06.551Z,98.00
2018-12-16T19:47:35.602Z,98.00
2018-12-16T19:50:05.408Z,97.80
2018-12-16T19:52:34.525Z,98.20
2018-12-16T19:55:03.838Z,98.20
2018-12-16T19:57:33.021Z,98.30
2018-12-16T20:00:02.294Z,98.00
2018-12-16T20:02:31.385Z,98.10
2018-12-16T20:05:04.525Z,98.10
2018-12-16T20:07:34.354Z,98.30
2018-12-16T20:10:03.664Z,98.00
2018-12-16T20:12:32.789Z,98.20
2018-12-16T20:15:01.855Z,98.20
2018-12-16T20:17:30.962Z,98.30
2018-12-16T20:20:00.132Z,98.10
2018-12-16T20:22:29.250Z,98.00
2018-12-16T20:24:58.558Z,98.20
2018-12-16T20:27:27.693Z,98.20
2018-12-16T20:29:56.870Z,98.20
2018-12-16T20:32:25.952Z,98.10
2018-12-16T20:34:55.593Z,98.20
2018-12-16T20:37:24.693Z,98.20
2018-12-16T20:39:53.817Z,98.00
2018-12-16T20:42:22.947Z,98.20
2018-12-16T20:44:52.050Z,98.30
2018-12-16T20:47:21.075Z,98.20
2018-12-16T20:49:50.252Z,98.10
2018-12-16T20:52:19.428Z,98.20
2018-12-16T20:54:48.541Z,97.90
2018-12-16T20:57:18.899Z,98.00
2018-12-16T20:59:48.371Z,97.90
2018-12-16T21:02:17.527Z,98.20
2018-12-16T21:04:46.612Z,98.10
2018-12-16T21:07:15.696Z,98.10
2018-12-16T21:09:45.068Z,97.90
2018-12-16T21:14:21.023Z,98.00
2018-12-16T21:16:55.154Z,98.00
2018-12-16T21:19:24.250Z,98.00
2018-12-16T21:21:53.383Z,97.90
2018-12-16T21:24:22.703Z,97.90
2018-12-16T21:26:51.774Z,97.90
2018-12-16T21:29:20.934Z,97.90
2018-12-16T21:31:50.116Z,98.10
2018-12-16T21:34:19.246Z,97.90
2018-12-16T21:36:48.442Z,98.10
2018-12-16T21:39:17.570Z,98.20
2018-12-16T21:41:46.661Z,98.20
2018-12-16T21:44:22.405Z,98.10
2018-12-16T21:46:51.524Z,98.20
2018-12-16T21:49:20.816Z,98.40
2018-12-16T21:51:49.940Z,98.40
2018-12-16T21:54:19.062Z,98.40
2018-12-16T21:56:48.194Z,98.70
2018-12-16T21:59:17.363Z,98.30
2018-12-16T22:01:46.482Z,98.40
2018-12-16T22:04:15.637Z,98.50
2018-12-16T22:06:44.761Z,98.40
2018-12-16T22:09:13.805Z,98.60
2018-12-16T22:11:42.894Z,98.60
2018-12-16T22:14:12.082Z,98.50
2018-12-16T22:16:41.325Z,98.60
2018-12-16T22:19:10.488Z,98.50
2018-12-16T22:21:39.678Z,98.30
2018-12-16T22:24:08.771Z,98.40
2018-12-16T22:26:37.828Z,98.30
2018-12-16T22:29:06.948Z,98.50
2018-12-16T22:31:36.040Z,98.30
2018-12-16T22:34:05.748Z,98.40
2018-12-16T22:36:34.885Z,98.30
2018-12-16T22:39:05.872Z,98.10
2018-12-16T22:41:35.041Z,98.30
2018-12-16T22:44:04.338Z,98.40
2018-12-16T22:46:33.926Z,98.50
2018-12-16T22:49:03.115Z,98.50
2018-12-16T22:51:32.259Z,98.30
2018-12-16T22:54:08.097Z,98.30
2018-12-16T22:56:37.228Z,98.30
2018-12-16T22:59:06.340Z,98.40
2018-12-16T23:01:35.757Z,98.50
2018-12-16T23:04:04.852Z,98.50
2018-12-16T23:06:33.933Z,98.60
2018-12-16T23:09:04.277Z,98.40
2018-12-16T23:11:33.353Z,98.40
2018-12-16T23:14:02.458Z,98.60
2018-12-16T23:16:31.576Z,98.60
2018-12-16T23:19:00.651Z,98.70
2018-12-16T23:21:29.754Z,98.60
2018-12-16T23:23:58.931Z,98.60
2018-12-16T23:26:28.083Z,98.70
2018-12-16T23:28:57.159Z,98.80
2018-12-16T23:31:26.343Z,98.70
2018-12-16T23:33:55.382Z,98.70
2018-12-16T23:36:24.488Z,98.70
2018-12-16T23:38:53.620Z,98.70
2018-12-16T23:41:22.694Z,98.70
2018-12-16T23:43:51.803Z,98.80
2018-12-16T23:46:20.936Z,98.90
2018-12-16T23:48:50.071Z,99.00
2018-12-16T23:51:19.171Z,98.70
2018-12-16T23:53:48.614Z,98.80
2018-12-16T23:56:17.683Z,98.80
2018-12-16T23:58:46.805Z,98.80
